Fouma — C4WT2 — position and weather

sailwx.info

Track history (hours):
 
Tides and Currents Weather Stations Pressure Air Temp Water Temp Dewpoint Dewpoint Depression Visibility Wind Speed Wind Dir Waves Ship Positions

Fouma

Last reported at 2018-Jun-19 00:57 UTC. Time now 2018-Jun-21 04:12 UTC.
Position N 09°27' W 079°53'.

Length 166 m; draft 9.5 m.

Type: Cargo ship. MMSI: 212917000.

Date/timePositionNaut miles runAvg speedWind from/ knotsBaromVisibWave heightAir tempDewpointWater temp
2018-Jun-19 00:57N 09°27' W 079°53'4 9.7
2018-Jun-19 00:30N 09°22' W 079°54'1 1.6
2018-Jun-18 23:59N 09°22' W 079°53'0 0.0
2018-Jun-18 23:29N 09°22' W 079°53'0 0.0
2018-Jun-18 22:59N 09°22' W 079°53'0 0.0
2018-Jun-18 22:29N 09°22' W 079°53'0 0.0
2018-Jun-18 21:59N 09°22' W 079°53'0 0.0
2018-Jun-18 21:29N 09°22' W 079°53'0 0.0
2018-Jun-18 20:59N 09°22' W 079°53'0 0.0
2018-Jun-18 20:29N 09°22' W 079°53'0 0.0
2018-Jun-18 19:59N 09°22' W 079°53'0 0.0
2018-Jun-18 19:29N 09°22' W 079°53'0 0.0
2018-Jun-18 18:59N 09°22' W 079°53'0 0.0
2018-Jun-18 18:29N 09°22' W 079°53'0 0.0
2018-Jun-18 17:59N 09°22' W 079°53'0 0.0
2018-Jun-18 17:29N 09°22' W 079°53'0 0.0
2018-Jun-18 16:59N 09°22' W 079°53'0 0.0
2018-Jun-18 16:29N 09°22' W 079°53'0 0.0
2018-Jun-18 15:59N 09°22' W 079°53'0 0.0
2018-Jun-18 15:28N 09°22' W 079°53'0 0.0
2018-Jun-18 14:58N 09°22' W 079°53'0 0.0
2018-Jun-18 14:28N 09°22' W 079°53'0 0.0
2018-Jun-18 13:58N 09°22' W 079°53'0 0.0
2018-Jun-18 13:28N 09°22' W 079°53'0 0.0
2018-Jun-18 12:58N 09°22' W 079°53'0 0.0
2018-Jun-18 12:28N 09°22' W 079°53'0 0.2
2018-Jun-18 12:00N 09°22' W 079°53'2 4.2
2018-Jun-18 11:30N 09°24' W 079°54'3 6.7
2018-Jun-18 11:00N 09°27' W 079°53'1 1.0
2018-Jun-18 10:29N 09°27' W 079°53'1 2.1
2018-Jun-18 10:00N 09°27' W 079°54'0 0.1
2018-Jun-18 09:30N 09°27' W 079°54'0 0.9
2018-Jun-18 09:00N 09°28' W 079°54'2 3.2
2018-Jun-18 08:29N 09°26' W 079°55'510.0
2018-Jun-18 08:00N 09°21' W 079°55'4 8.0
2018-Jun-18 07:30N 09°17' W 079°55'1 1.5
2018-Jun-18 07:00N 09°17' W 079°55'0 0.7
2018-Jun-18 06:30N 09°16' W 079°55'0 0.4
2018-Jun-18 06:00N 09°16' W 079°55'2 3.0
2018-Jun-18 05:29N 09°14' W 079°55'  
Track history (hours):
 
Tides and Currents Weather Stations Pressure Air Temp Water Temp Dewpoint Dewpoint Depression Visibility Wind Speed Wind Dir Waves Ship Positions

Fouma

Last reported at 2018-Jun-19 00:57 UTC. Time now 2018-Jun-21 04:12 UTC.
Position N 09°27' W 079°53'.

Length 166 m; draft 9.5 m.

Type: Cargo ship. MMSI: 212917000.

Date/timePositionNaut miles runAvg speedWind from/ knotsBaromVisibWave heightAir tempDewpointWater temp
2018-Jun-19 00:57N 09°27' W 079°53'4 9.7
2018-Jun-19 00:30N 09°22' W 079°54'1 1.6
2018-Jun-18 23:59N 09°22' W 079°53'0 0.0
2018-Jun-18 23:29N 09°22' W 079°53'0 0.0
2018-Jun-18 22:59N 09°22' W 079°53'0 0.0
2018-Jun-18 22:29N 09°22' W 079°53'0 0.0
2018-Jun-18 21:59N 09°22' W 079°53'0 0.0
2018-Jun-18 21:29N 09°22' W 079°53'0 0.0
2018-Jun-18 20:59N 09°22' W 079°53'0 0.0
2018-Jun-18 20:29N 09°22' W 079°53'0 0.0
2018-Jun-18 19:59N 09°22' W 079°53'0 0.0
2018-Jun-18 19:29N 09°22' W 079°53'0 0.0
2018-Jun-18 18:59N 09°22' W 079°53'0 0.0
2018-Jun-18 18:29N 09°22' W 079°53'0 0.0
2018-Jun-18 17:59N 09°22' W 079°53'0 0.0
2018-Jun-18 17:29N 09°22' W 079°53'0 0.0
2018-Jun-18 16:59N 09°22' W 079°53'0 0.0
2018-Jun-18 16:29N 09°22' W 079°53'0 0.0
2018-Jun-18 15:59N 09°22' W 079°53'0 0.0
2018-Jun-18 15:28N 09°22' W 079°53'0 0.0
2018-Jun-18 14:58N 09°22' W 079°53'0 0.0
2018-Jun-18 14:28N 09°22' W 079°53'0 0.0
2018-Jun-18 13:58N 09°22' W 079°53'0 0.0
2018-Jun-18 13:28N 09°22' W 079°53'0 0.0
2018-Jun-18 12:58N 09°22' W 079°53'0 0.0
2018-Jun-18 12:28N 09°22' W 079°53'0 0.2
2018-Jun-18 12:00N 09°22' W 079°53'2 4.2
2018-Jun-18 11:30N 09°24' W 079°54'3 6.7
2018-Jun-18 11:00N 09°27' W 079°53'1 1.0
2018-Jun-18 10:29N 09°27' W 079°53'1 2.1
2018-Jun-18 10:00N 09°27' W 079°54'0 0.1
2018-Jun-18 09:30N 09°27' W 079°54'0 0.9
2018-Jun-18 09:00N 09°28' W 079°54'2 3.2
2018-Jun-18 08:29N 09°26' W 079°55'510.0
2018-Jun-18 08:00N 09°21' W 079°55'4 8.0
2018-Jun-18 07:30N 09°17' W 079°55'1 1.5
2018-Jun-18 07:00N 09°17' W 079°55'0 0.7
2018-Jun-18 06:30N 09°16' W 079°55'0 0.4
2018-Jun-18 06:00N 09°16' W 079°55'2 3.0
2018-Jun-18 05:29N 09°14' W 079°55'  

Dump ship's entire track history